»·PEaware :: SKW5171 KLBF-KDEN

SKW5171 :: KLBF-KDEN

FLIGHT INFORMATION

Flight Status: Arrived
Operator:
SkyWest Airlines
More flights by this operator :: More flights under this callsign
Pilot: Jack B. (5846)
Aircraft: CANADAIR CL-600 CRJ-200
(CRJ2)
More flights by this aircraft type
Origin: KLBF North Platte Regl-Bird
United States
Destination: KDEN Denver Intl
United States
More flights between these airports :: More routes between these airports
Route: +LBF SAYGE2
File this flight plan on PilotEdge
Remarks:
Altitude:
(Current/Filed)
260ft
Speed:
(Current/Filed)
320kts
Departed: 09-Feb-20 05:40 PM
Arrived: 09-Feb-20 06:23 PM
Distance/Time
Traveled:
197nm/0:42
Distance/Time
To Go:
Arrived

Flight Plot

Page will automatically refresh every two minutes.

Flight plan parsing failed; only flown route is shown


Map Options




Map Legend


Flown Route
Filed Route
Departure Airport
Arrival Airport
Navaid (VOR, NDB)
Fix

Horizontal Profiles

Position Reports

Time Latitude Longitude Heading Altitude Ground
Speed
09-Feb-20 17:17 41.132134 -100.696386 92 2781ft 0kts
09-Feb-20 17:18 41.132134 -100.696386 92 2781ft 0kts
09-Feb-20 17:19 41.132134 -100.696386 92 2781ft 0kts
09-Feb-20 17:20 41.132134 -100.696386 92 2781ft 0kts
09-Feb-20 17:21 41.132134 -100.696386 92 2781ft 0kts
09-Feb-20 17:22 41.132134 -100.696386 92 2781ft 0kts
09-Feb-20 17:23 41.132134 -100.696386 92 2781ft 0kts
09-Feb-20 17:24 41.132134 -100.696386 92 2781ft 0kts
09-Feb-20 17:25 41.132134 -100.696386 92 2781ft 0kts
09-Feb-20 17:26 41.132134 -100.696386 92 2781ft 0kts
09-Feb-20 17:27 41.132134 -100.696386 92 2781ft 0kts
09-Feb-20 17:28 41.132134 -100.696386 92 2781ft 0kts
09-Feb-20 17:29 41.132131 -100.696253 92 2781ft 2kts
09-Feb-20 17:30 41.131182 -100.693522 90 2781ft 13kts
09-Feb-20 17:31 41.131394 -100.690862 41 2781ft 6kts
09-Feb-20 17:32 41.131440 -100.690811 38 2781ft 0kts
09-Feb-20 17:33 41.131440 -100.690811 38 2781ft 0kts
09-Feb-20 17:34 41.131440 -100.690811 38 2781ft 0kts
09-Feb-20 17:35 41.131440 -100.690811 38 2781ft 0kts
09-Feb-20 17:36 41.131440 -100.690811 38 2781ft 0kts
09-Feb-20 17:37 41.131440 -100.690811 38 2781ft 0kts
09-Feb-20 17:38 41.132017 -100.689900 123 2781ft 0kts
09-Feb-20 17:39 41.125477 -100.677848 125 2781ft 122kts
09-Feb-20 17:40 41.096474 -100.638489 174 4149ft 172kts
09-Feb-20 17:41 41.077398 -100.694345 266 6024ft 217kts
09-Feb-20 17:42 41.058376 -100.781013 253 8028ft 272kts
09-Feb-20 17:43 41.030002 -100.881196 256 10144ft 303kts
09-Feb-20 17:44 41.010003 -100.989792 258 12618ft 308kts
09-Feb-20 17:45 40.991322 -101.101648 258 14728ft 314kts
09-Feb-20 17:46 40.972692 -101.215153 258 16629ft 319kts
09-Feb-20 17:47 40.953699 -101.330164 258 18309ft 323kts
09-Feb-20 17:48 40.934313 -101.446704 258 19796ft 326kts
09-Feb-20 17:49 40.914655 -101.564130 258 21096ft 329kts
09-Feb-20 17:50 40.894607 -101.683044 258 22243ft 333kts
09-Feb-20 17:51 40.874442 -101.801851 258 23220ft 336kts
09-Feb-20 17:52 40.853610 -101.924464 258 23803ft 347kts
09-Feb-20 17:53 40.832446 -102.050104 258 24374ft 355kts
09-Feb-20 17:54 40.811144 -102.177630 258 24974ft 359kts
09-Feb-20 17:55 40.789721 -102.306906 258 25595ft 362kts
09-Feb-20 17:56 40.768362 -102.436919 258 26140ft 367kts
09-Feb-20 17:57 40.750915 -102.572321 260 26145ft 382kts
09-Feb-20 17:58 40.732724 -102.712376 260 26148ft 393kts
09-Feb-20 17:59 40.713912 -102.855798 260 26145ft 401kts
09-Feb-20 18:00 40.694580 -103.001876 260 26140ft 406kts
09-Feb-20 18:01 40.654233 -103.138144 237 26157ft 412kts
09-Feb-20 18:02 40.583053 -103.257192 232 26156ft 416kts
09-Feb-20 18:03 40.508449 -103.374134 232 26154ft 418kts
09-Feb-20 18:04 40.436787 -103.484941 231 26157ft 419kts
09-Feb-20 18:05 40.359665 -103.603165 231 25279ft 433kts
09-Feb-20 18:06 40.283579 -103.720397 231 24199ft 410kts
09-Feb-20 18:07 40.211154 -103.831697 231 22411ft 388kts
09-Feb-20 18:08 40.143332 -103.935595 231 20288ft 377kts
09-Feb-20 18:09 40.094223 -104.047560 268 18522ft 336kts
09-Feb-20 18:10 40.101150 -104.158992 287 16487ft 297kts
09-Feb-20 18:11 40.129303 -104.256563 287 13388ft 281kts
09-Feb-20 18:12 40.155288 -104.352280 287 10627ft 281kts
09-Feb-20 18:13 40.180342 -104.444803 287 8733ft 254kts
09-Feb-20 18:14 40.202916 -104.527125 287 8039ft 236kts
09-Feb-20 18:15 40.214381 -104.609564 237 8038ft 227kts
09-Feb-20 18:16 40.158775 -104.641649 197 8040ft 230kts
09-Feb-20 18:17 40.098149 -104.666425 197 8030ft 227kts
09-Feb-20 18:18 40.037224 -104.684450 183 8025ft 225kts
09-Feb-20 18:19 39.973667 -104.685903 181 6950ft 216kts
09-Feb-20 18:20 39.922942 -104.686502 181 5975ft 148kts
09-Feb-20 18:21 39.884381 -104.686984 180 5436ft 95kts
09-Feb-20 18:22 39.871658 -104.685334 150 5436ft 18kts
09-Feb-20 18:23 39.863192 -104.683915 181 5436ft 42kts
09-Feb-20 18:24 39.860672 -104.677612 89 5436ft 30kts
09-Feb-20 18:25 39.860268 -104.668941 157 5436ft 6kts
09-Feb-20 18:26 39.859386 -104.668698 178 5436ft 0kts

Navigation Log

Ident Type
Flight plan parsing failed, navigation log unavailable